Time;durP1;ratioP1;P1;durP2;ratioP2;P2;SDS_P1;SDS_P2;PMS_P1;PMS_P2;Temp;Humidity;BMP_temperature;BMP_pressure;BME280_temperature;BME280_humidity;BME280_pressure;Samples;Min_cycle;Max_cycle;Signal;HPM_P1;HPM_P2
2021/03/17 00:02:12;;;;;;;6.95;3.20;;;6.00;90.30;;;;;;5113469;28;20016;-77
2021/03/17 00:04:38;;;;;;;7.15;4.25;;;6.00;90.30;;;;;;5112135;28;20023;-77
2021/03/17 00:07:04;;;;;;;7.65;4.38;;;6.00;90.30;;;;;;5111453;28;20101;-77
2021/03/17 00:09:29;;;;;;;4.70;2.42;;;6.00;90.20;;;;;;5112013;28;20023;-77
2021/03/17 00:11:55;;;;;;;6.50;3.35;;;5.90;90.20;;;;;;5111791;28;20051;-77
2021/03/17 00:14:21;;;;;;;5.63;3.25;;;5.90;90.20;;;;;;5112129;28;20045;-77
2021/03/17 00:16:46;;;;;;;7.90;3.38;;;5.80;90.20;;;;;;5111920;28;20028;-77
2021/03/17 00:19:12;;;;;;;5.85;3.53;;;5.80;90.30;;;;;;5111435;28;20023;-77
2021/03/17 00:21:37;;;;;;;6.47;3.80;;;5.70;90.30;;;;;;5111786;28;20074;-76
2021/03/17 00:24:03;;;;;;;7.10;3.60;;;5.70;90.30;;;;;;5111499;28;20015;-77
2021/03/17 00:26:29;;;;;;;7.75;3.60;;;5.70;90.40;;;;;;5111470;28;20016;-76
2021/03/17 00:28:54;;;;;;;8.52;4.07;;;5.60;90.40;;;;;;5112513;28;20085;-76
2021/03/17 00:31:20;;;;;;;6.10;3.58;;;5.60;90.40;;;;;;5112963;28;20016;-76
2021/03/17 00:33:46;;;;;;;7.35;3.33;;;5.60;90.50;;;;;;5111785;28;20019;-76
2021/03/17 00:36:11;;;;;;;6.53;3.78;;;5.60;90.60;;;;;;5111339;28;20110;-76
2021/03/17 00:38:37;;;;;;;6.97;4.38;;;5.60;90.60;;;;;;5111604;28;20047;-77
2021/03/17 00:41:02;;;;;;;5.95;3.42;;;5.70;90.60;;;;;;5112923;28;20047;-77
2021/03/17 00:43:28;;;;;;;6.60;4.10;;;5.70;90.80;;;;;;5111598;28;20027;-76
2021/03/17 00:45:53;;;;;;;4.45;2.42;;;5.70;90.60;;;;;;5112908;28;20475;-76
2021/03/17 00:48:19;;;;;;;9.55;4.60;;;5.70;91.20;;;;;;5111562;28;20016;-76
2021/03/17 00:50:44;;;;;;;7.00;4.40;;;5.70;91.10;;;;;;5112725;28;20072;-77
2021/03/17 00:53:10;;;;;;;7.22;3.88;;;5.80;90.90;;;;;;5110880;28;20024;-78
2021/03/17 00:55:35;;;;;;;6.50;3.97;;;5.70;90.60;;;;;;5111279;28;20016;-76
2021/03/17 00:58:02;;;;;;;7.78;5.10;;;5.80;91.00;;;;;;5111078;28;20455;-77
2021/03/17 01:00:27;;;;;;;7.65;4.38;;;5.80;90.80;;;;;;5111339;28;20023;-77
2021/03/17 01:02:53;;;;;;;7.22;4.85;;;5.80;91.10;;;;;;5111114;28;20016;-77
2021/03/17 01:05:19;;;;;;;6.47;4.32;;;5.80;90.80;;;;;;5111456;28;20046;-76
2021/03/17 01:07:44;;;;;;;8.20;4.55;;;5.80;90.70;;;;;;5112350;28;20039;-77
2021/03/17 01:10:19;;;;;;;7.10;4.47;;;5.80;90.80;;;;;;5110993;28;20020;-77
2021/03/17 01:12:45;;;;;;;8.23;4.60;;;5.80;91.00;;;;;;5112570;28;20016;-77
2021/03/17 01:15:15;;;;;;;7.50;4.53;;;5.80;91.50;;;;;;5110996;28;20348;-78
2021/03/17 01:17:40;;;;;;;7.35;4.82;;;5.80;91.20;;;;;;5110746;28;20020;-76
2021/03/17 01:20:07;;;;;;;8.15;3.80;;;5.70;90.90;;;;;;5111999;28;20031;-77
2021/03/17 01:22:32;;;;;;;7.53;4.38;;;5.80;91.30;;;;;;5110929;28;20012;-76
2021/03/17 01:24:58;;;;;;;6.85;4.20;;;5.70;91.10;;;;;;5111892;28;20027;-77
2021/03/17 01:27:24;;;;;;;7.38;3.92;;;5.80;90.90;;;;;;5111305;28;20047;-77
2021/03/17 01:29:49;;;;;;;4.90;2.53;;;5.80;90.80;;;;;;5110995;28;20027;-77
2021/03/17 01:32:15;;;;;;;6.63;3.70;;;5.80;92.60;;;;;;5110888;28;20023;-77
2021/03/17 01:34:40;;;;;;;6.93;4.03;;;5.80;91.20;;;;;;5112374;28;20023;-78
2021/03/17 01:37:06;;;;;;;5.20;3.03;;;5.80;91.00;;;;;;5112120;28;20027;-78
2021/03/17 01:39:31;;;;;;;6.05;3.85;;;5.70;91.10;;;;;;5114469;28;20096;-78
2021/03/17 01:41:57;;;;;;;6.53;4.03;;;5.70;91.00;;;;;;5114680;28;20023;-77
2021/03/17 01:44:22;;;;;;;5.10;3.13;;;5.80;91.50;;;;;;5114782;28;20019;-77
2021/03/17 01:46:48;;;;;;;5.43;3.13;;;5.80;91.30;;;;;;5115818;28;20172;-76
2021/03/17 01:49:14;;;;;;;7.70;4.32;;;5.80;91.30;;;;;;5114592;28;20028;-77
2021/03/17 01:51:39;;;;;;;5.85;3.22;;;5.80;91.00;;;;;;5115854;28;20022;-77
2021/03/17 01:54:06;;;;;;;5.82;3.75;;;5.70;91.10;;;;;;5116043;28;20448;-77
2021/03/17 01:56:31;;;;;;;5.60;3.40;;;5.70;91.00;;;;;;5115816;28;20027;-76
2021/03/17 01:58:57;;;;;;;6.55;3.78;;;5.80;91.00;;;;;;5114402;28;20466;-78
2021/03/17 02:01:22;;;;;;;7.05;4.82;;;5.80;91.30;;;;;;5115860;28;20019;-77
2021/03/17 02:03:48;;;;;;;6.63;4.22;;;5.80;91.00;;;;;;5114567;28;20023;-77
2021/03/17 02:06:14;;;;;;;6.85;4.50;;;5.80;91.20;;;;;;5114335;28;20122;-77
2021/03/17 02:08:43;;;;;;;7.13;4.40;;;5.80;91.00;;;;;;5113992;28;20050;-77
2021/03/17 02:11:10;;;;;;;7.85;4.03;;;5.80;91.00;;;;;;5114041;28;20019;-77
2021/03/17 02:13:50;;;;;;;6.28;4.00;;;5.80;91.00;;;;;;5114228;28;20020;-77
2021/03/17 02:16:38;;;;;;;6.35;4.03;;;5.80;90.90;;;;;;5113925;28;20383;-77
2021/03/17 02:19:13;;;;;;;7.85;4.30;;;5.80;90.90;;;;;;5115322;28;20027;-77
2021/03/17 02:22:10;;;;;;;7.57;5.10;;;5.90;91.00;;;;;;5114147;28;20364;-77
2021/03/17 02:24:44;;;;;;;7.07;4.35;;;5.90;91.00;;;;;;5114139;28;20020;-77
2021/03/17 02:27:41;;;;;;;9.35;5.07;;;5.90;91.10;;;;;;5115034;28;20022;-77
2021/03/17 02:30:27;;;;;;;8.85;5.60;;;5.90;91.70;;;;;;5113811;28;20375;-78
2021/03/17 02:33:19;;;;;;;7.32;5.18;;;6.00;91.60;;;;;;5113988;28;20015;-77
2021/03/17 02:35:48;;;;;;;8.82;5.78;;;6.00;91.40;;;;;;5113556;28;20115;-78
2021/03/17 02:38:15;;;;;;;9.57;6.43;;;6.00;91.40;;;;;;5113530;28;20019;-77
2021/03/17 02:40:43;;;;;;;11.18;6.55;;;6.00;91.30;;;;;;5113859;28;20106;-78
2021/03/17 02:43:28;;;;;;;8.68;6.32;;;6.00;91.30;;;;;;5113507;28;20470;-78
2021/03/17 02:45:56;;;;;;;8.77;5.93;;;6.00;91.30;;;;;;5113771;28;20015;-78
2021/03/17 02:48:36;;;;;;;10.18;7.60;;;6.00;91.50;;;;;;5113346;28;20455;-77
2021/03/17 02:51:05;;;;;;;9.52;6.38;;;6.00;91.40;;;;;;5113431;28;20020;-77
2021/03/17 02:53:33;;;;;;;10.90;7.28;;;6.00;91.30;;;;;;5115154;28;20012;-76
2021/03/17 02:56:09;;;;;;;9.48;6.65;;;6.00;91.30;;;;;;5114424;28;20031;-78
2021/03/17 02:58:38;;;;;;;8.18;6.50;;;6.00;91.50;;;;;;5114940;28;20411;-78
2021/03/17 03:01:05;;;;;;;8.77;6.28;;;6.00;91.50;;;;;;5113337;28;20053;-78
2021/03/17 03:03:33;;;;;;;8.82;6.50;;;6.00;91.50;;;;;;5113267;28;20023;-78
2021/03/17 03:06:01;;;;;;;8.88;6.22;;;6.00;91.50;;;;;;5113042;28;20467;-78
2021/03/17 03:08:28;;;;;;;8.15;5.43;;;6.00;91.50;;;;;;5114573;28;20047;-78
2021/03/17 03:10:56;;;;;;;8.82;5.82;;;6.00;91.60;;;;;;5114541;28;20031;-77
2021/03/17 03:13:26;;;;;;;9.15;6.15;;;6.00;91.50;;;;;;5112676;28;20023;-79
2021/03/17 03:15:56;;;;;;;8.80;5.50;;;6.00;91.50;;;;;;5114186;28;20024;-78
2021/03/17 03:18:26;;;;;;;8.33;5.97;;;6.10;91.50;;;;;;5112600;28;20451;-76
2021/03/17 03:20:54;;;;;;;7.10;5.15;;;6.10;91.60;;;;;;5113043;28;20065;-78
2021/03/17 03:23:22;;;;;;;8.60;4.80;;;6.10;91.50;;;;;;5112690;28;20047;-78
2021/03/17 03:25:49;;;;;;;7.90;5.03;;;6.10;91.40;;;;;;5112991;28;20474;-77
2021/03/17 03:28:17;;;;;;;6.15;4.00;;;6.10;91.40;;;;;;5114020;28;20018;-78
2021/03/17 03:30:46;;;;;;;7.80;4.97;;;6.10;91.70;;;;;;5112659;28;20047;-78
2021/03/17 03:33:12;;;;;;;7.57;5.28;;;6.10;91.70;;;;;;5112155;28;20035;-78
2021/03/17 03:35:38;;;;;;;7.30;4.93;;;6.20;91.70;;;;;;5112625;28;20015;-78
2021/03/17 03:38:09;;;;;;;6.55;4.22;;;6.20;91.80;;;;;;5112398;28;20051;-78
2021/03/17 03:40:35;;;;;;;6.38;4.55;;;6.20;91.50;;;;;;5113905;28;20016;-77
2021/03/17 03:43:02;;;;;;;6.15;4.20;;;6.20;91.40;;;;;;5112132;28;20020;-77
2021/03/17 03:45:28;;;;;;;7.07;4.47;;;6.30;91.50;;;;;;5112473;28;20020;-77
2021/03/17 03:47:54;;;;;;;6.47;4.80;;;6.30;91.50;;;;;;5112433;28;20023;-77
2021/03/17 03:50:23;;;;;;;5.00;3.78;;;6.30;91.40;;;;;;5113249;28;20022;-77
2021/03/17 03:53:06;;;;;;;5.85;3.75;;;6.30;91.50;;;;;;5113331;28;20024;-77
2021/03/17 03:55:51;;;;;;;5.40;2.63;;;6.30;91.40;;;;;;5112233;28;20409;-77
2021/03/17 03:58:41;;;;;;;5.68;3.80;;;6.30;92.10;;;;;;5113086;28;20031;-77
2021/03/17 04:01:16;;;;;;;;;;;6.30;92.20;;;;;;5113139;28;20053;-77
2021/03/17 04:03:46;;;;;;;7.57;4.22;;;6.30;91.60;;;;;;5113471;28;19900;-77
2021/03/17 04:06:13;;;;;;;6.32;4.15;;;6.30;91.90;;;;;;5112933;28;20023;-78
2021/03/17 04:08:45;;;;;;;7.13;3.95;;;6.30;91.80;;;;;;5110918;28;20104;-77
2021/03/17 04:11:12;;;;;;;6.65;3.95;;;6.30;91.60;;;;;;5112427;28;20103;-77
2021/03/17 04:13:40;;;;;;;6.60;4.43;;;6.30;91.50;;;;;;5110968;28;20023;-78
2021/03/17 04:16:07;;;;;;;6.85;4.65;;;6.30;91.90;;;;;;5110901;28;20098;-78
2021/03/17 04:18:37;;;;;;;6.50;4.00;;;6.30;91.70;;;;;;5111173;28;20486;-77
2021/03/17 04:21:09;;;;;;;5.85;4.05;;;6.20;91.70;;;;;;5112225;28;20022;-77
2021/03/17 04:23:37;;;;;;;4.80;2.80;;;6.30;91.80;;;;;;5112182;28;20016;-78
2021/03/17 04:26:03;;;;;;;7.53;3.60;;;6.30;91.80;;;;;;5111046;28;20023;-78
2021/03/17 04:28:30;;;;;;;5.80;3.85;;;6.30;91.70;;;;;;5110522;28;20521;-77
2021/03/17 04:31:01;;;;;;;11.18;4.82;;;6.40;91.70;;;;;;5112312;28;20028;-77
2021/03/17 04:33:29;;;;;;;6.18;4.05;;;6.40;91.50;;;;;;5110689;28;20011;-78
2021/03/17 04:35:57;;;;;;;6.70;4.53;;;6.40;91.50;;;;;;5110901;28;20080;-78
2021/03/17 04:38:26;;;;;;;6.05;4.05;;;6.40;91.60;;;;;;5110598;28;20057;-78
2021/03/17 04:40:52;;;;;;;6.50;3.95;;;6.40;91.70;;;;;;5110869;28;20012;-78
2021/03/17 04:43:19;;;;;;;5.00;3.13;;;6.50;91.50;;;;;;5110655;28;20110;-78
2021/03/17 04:45:46;;;;;;;7.80;4.13;;;6.50;91.50;;;;;;5112054;28;20084;-77
2021/03/17 04:48:11;;;;;;;6.50;4.30;;;6.50;91.50;;;;;;5110587;28;20026;-77
2021/03/17 04:50:39;;;;;;;6.43;4.40;;;6.50;91.50;;;;;;5112006;28;20352;-77
2021/03/17 04:53:07;;;;;;;6.00;3.97;;;6.50;91.40;;;;;;5110682;28;20031;-77
2021/03/17 04:55:33;;;;;;;5.78;3.45;;;6.50;91.40;;;;;;5111635;28;20020;-77
2021/03/17 04:58:01;;;;;;;7.22;4.22;;;6.60;91.80;;;;;;5111809;28;20023;-77
2021/03/17 05:00:28;;;;;;;8.02;3.70;;;6.60;91.90;;;;;;5110345;28;20455;-77
2021/03/17 05:03:02;;;;;;;5.55;3.42;;;6.60;91.40;;;;;;5110510;28;20016;-77
2021/03/17 05:05:29;;;;;;;7.15;3.22;;;6.60;92.40;;;;;;5110295;28;20016;-77
2021/03/17 05:09:15;;;;;;;6.10;3.67;;;6.50;91.90;;;;;;5078944;27;1502999;-77
2021/03/17 05:11:42;;;;;;;6.53;3.80;;;6.50;91.80;;;;;;5091653;28;20019;-77
2021/03/17 05:14:09;;;;;;;6.90;4.53;;;6.50;91.80;;;;;;5091403;28;20022;-77
2021/03/17 05:16:36;;;;;;;7.70;4.32;;;6.50;91.70;;;;;;5110098;28;20028;-77
2021/03/17 05:19:04;;;;;;;6.05;3.58;;;6.50;91.80;;;;;;5091759;28;20030;-77
2021/03/17 05:21:31;;;;;;;4.82;2.53;;;6.50;91.70;;;;;;5091479;28;20027;-77
2021/03/17 05:23:57;;;;;;;5.13;3.38;;;6.60;92.40;;;;;;5091713;28;20031;-77
2021/03/17 05:26:24;;;;;;;6.18;3.90;;;6.60;92.20;;;;;;5091257;28;20111;-78
2021/03/17 05:28:51;;;;;;;5.65;2.75;;;6.50;91.90;;;;;;5073004;28;20029;-78
2021/03/17 05:31:18;;;;;;;5.22;2.83;;;6.60;93.00;;;;;;5089372;28;20020;-78
2021/03/17 05:33:44;;;;;;;4.50;2.65;;;6.50;93.10;;;;;;5071877;28;20019;-78
2021/03/17 05:36:10;;;;;;;2.05;1.08;;;6.50;92.90;;;;;;5105017;28;20021;-79
2021/03/17 05:38:36;;;;;;;4.78;2.75;;;6.60;93.70;;;;;;5071093;28;20021;-78
2021/03/17 05:41:02;;;;;;;4.40;2.47;;;6.50;93.30;;;;;;5104847;28;20161;-78
2021/03/17 05:43:28;;;;;;;3.97;1.98;;;6.60;93.50;;;;;;5104651;28;20435;-77
2021/03/17 05:45:55;;;;;;;5.18;2.95;;;6.50;92.80;;;;;;5070991;28;20030;-78
2021/03/17 05:48:22;;;;;;;4.13;2.30;;;6.50;93.00;;;;;;5070680;28;20028;-78
2021/03/17 05:50:48;;;;;;;1.65;1.00;;;6.50;92.50;;;;;;5088666;28;20024;-77
2021/03/17 05:53:14;;;;;;;8.05;3.05;;;6.60;93.40;;;;;;5088888;28;20338;-77
2021/03/17 05:55:40;;;;;;;6.95;2.47;;;6.60;92.90;;;;;;5104570;28;20360;-77
2021/03/17 05:58:07;;;;;;;6.28;3.17;;;6.60;93.50;;;;;;5104505;28;20016;-77
2021/03/17 06:00:32;;;;;;;7.45;3.05;;;6.60;93.40;;;;;;5104277;28;20104;-78
2021/03/17 06:02:59;;;;;;;6.68;3.58;;;6.50;92.70;;;;;;5104448;28;20044;-77
2021/03/17 06:05:25;;;;;;;4.15;2.00;;;6.50;92.40;;;;;;5070221;28;20016;-78
2021/03/17 06:07:51;;;;;;;6.47;3.20;;;6.50;93.00;;;;;;5077282;28;20048;-78
2021/03/17 06:10:18;;;;;;;5.32;2.80;;;6.50;92.80;;;;;;5087117;28;20400;-78
2021/03/17 06:13:08;;;;;;;6.43;3.17;;;6.50;92.70;;;;;;5088526;28;20021;-77
2021/03/17 06:15:34;;;;;;;7.67;3.13;;;6.50;92.30;;;;;;5075008;28;20059;-77
2021/03/17 06:18:16;;;;;;;2.92;1.73;;;6.50;92.90;;;;;;5087255;28;20062;-77
2021/03/17 06:20:45;;;;;;;5.30;2.92;;;6.60;93.80;;;;;;5072956;28;20012;-77
2021/03/17 06:23:13;;;;;;;4.55;1.70;;;6.60;93.40;;;;;;5074786;28;20470;-77
2021/03/17 06:25:42;;;;;;;7.82;3.17;;;6.60;93.70;;;;;;5073486;28;20039;-78
2021/03/17 06:28:08;;;;;;;5.68;2.03;;;6.60;94.20;;;;;;5073056;28;20020;-78
2021/03/17 06:30:34;;;;;;;6.45;3.00;;;6.60;93.90;;;;;;5072938;28;20364;-77
2021/03/17 06:33:00;;;;;;;4.75;2.50;;;6.60;93.90;;;;;;5073224;28;20027;-78
2021/03/17 06:35:26;;;;;;;4.68;2.40;;;6.60;93.30;;;;;;5072969;28;20047;-78
2021/03/17 06:37:53;;;;;;;6.68;2.58;;;6.60;92.90;;;;;;5073114;28;20027;-78
2021/03/17 06:40:32;;;;;;;2.92;1.17;;;6.70;93.20;;;;;;5072842;28;20020;-77
2021/03/17 06:43:12;;;;;;;5.68;2.85;;;6.70;93.70;;;;;;5073092;28;20017;-77
2021/03/17 06:45:46;;;;;;;6.57;3.20;;;6.70;93.20;;;;;;5073278;28;20025;-77
2021/03/17 06:48:28;;;;;;;7.75;2.72;;;6.70;92.40;;;;;;5066870;28;20117;-76
2021/03/17 06:51:09;;;;;;;4.45;1.60;;;6.70;91.50;;;;;;5077022;28;20024;-77
2021/03/17 06:53:35;;;;;;;;;;;6.70;93.30;;;;;;5064877;28;20062;-78
2021/03/17 06:56:33;;;;;;;5.15;3.03;;;6.70;92.70;;;;;;5056868;28;19944;-78
2021/03/17 06:59:07;;;;;;;3.45;1.58;;;6.70;93.10;;;;;;5050041;28;20032;-78
2021/03/17 07:01:42;;;;;;;6.50;2.67;;;6.70;93.90;;;;;;5094236;28;20031;-77
2021/03/17 07:04:17;;;;;;;5.32;3.00;;;6.70;94.30;;;;;;5059495;28;20107;-76
2021/03/17 07:06:48;;;;;;;4.35;2.30;;;6.70;93.70;;;;;;5056351;28;20009;-76
2021/03/17 07:09:20;;;;;;;3.35;1.88;;;6.70;93.70;;;;;;5073819;28;20191;-77
2021/03/17 07:11:47;;;;;;;4.28;2.50;;;6.80;94.50;;;;;;5055979;28;20044;-77
2021/03/17 07:14:13;;;;;;;5.18;3.00;;;6.80;93.70;;;;;;5055650;28;20016;-77
2021/03/17 07:16:42;;;;;;;2.85;1.55;;;6.90;95.00;;;;;;5055934;28;20048;-78
2021/03/17 07:19:09;;;;;;;4.85;2.58;;;6.90;94.60;;;;;;5073994;28;20449;-77
2021/03/17 07:21:39;;;;;;;5.68;2.70;;;7.00;94.70;;;;;;5073660;28;20044;-78
2021/03/17 07:24:07;;;;;;;4.93;2.50;;;7.10;94.80;;;;;;5056185;28;20182;-78
2021/03/17 07:26:37;;;;;;;3.35;1.58;;;7.20;93.70;;;;;;5075751;28;20357;-78
2021/03/17 07:29:05;;;;;;;5.25;2.47;;;7.50;93.80;;;;;;5057046;28;20035;-78
2021/03/17 07:31:35;;;;;;;3.53;2.30;;;7.60;93.50;;;;;;5054716;28;20024;-77
2021/03/17 07:34:29;;;;;;;7.70;2.13;;;7.70;93.50;;;;;;5073986;28;20016;-77
2021/03/17 07:37:00;;;;;;;5.07;1.80;;;7.80;93.30;;;;;;5054797;28;20081;-77
2021/03/17 07:39:41;;;;;;;3.85;1.90;;;8.00;90.80;;;;;;5072828;28;20468;-78
2021/03/17 07:42:08;;;;;;;6.20;2.28;;;8.30;91.20;;;;;;5055347;28;20039;-78
2021/03/17 07:44:36;;;;;;;3.20;1.40;;;8.70;90.60;;;;;;5073097;28;20044;-77
2021/03/17 07:47:07;;;;;;;1.88;0.90;;;8.90;91.80;;;;;;5077380;28;20444;-77
2021/03/17 07:49:35;;;;;;;1.88;0.75;;;8.80;90.20;;;;;;5068411;28;20048;-77
2021/03/17 07:52:00;;;;;;;5.35;1.40;;;8.60;90.00;;;;;;5074062;28;20403;-78
2021/03/17 07:54:32;;;;;;;1.77;1.17;;;8.40;90.20;;;;;;5092954;28;20493;-77
2021/03/17 07:57:03;;;;;;;1.85;0.80;;;8.30;91.40;;;;;;5055786;28;20066;-75
2021/03/17 07:59:29;;;;;;;3.53;1.20;;;8.30;92.30;;;;;;5072670;28;20020;-76
2021/03/17 08:01:56;;;;;;;3.42;1.70;;;8.30;92.40;;;;;;5055028;28;20025;-77
2021/03/17 08:04:30;;;;;;;3.47;1.15;;;8.30;90.30;;;;;;5054920;28;20016;-77
2021/03/17 08:07:00;;;;;;;3.25;0.90;;;8.30;90.80;;;;;;5056390;28;20063;-78
2021/03/17 08:09:26;;;;;;;4.25;1.30;;;8.40;90.30;;;;;;5065956;28;20067;-78
2021/03/17 08:11:54;;;;;;;5.10;1.17;;;8.50;85.50;;;;;;5074787;28;20398;-76
2021/03/17 08:14:20;;;;;;;3.78;1.17;;;8.70;89.90;;;;;;5092161;28;20020;-76
2021/03/17 08:16:47;;;;;;;5.15;1.10;;;8.80;92.00;;;;;;5071346;28;20020;-74
2021/03/17 08:19:29;;;;;;;10.57;1.75;;;8.60;91.20;;;;;;5082271;28;20440;-76
2021/03/17 08:22:00;;;;;;;3.22;1.02;;;8.40;88.50;;;;;;5074711;28;20373;-76
2021/03/17 08:24:30;;;;;;;8.70;1.60;;;8.30;86.80;;;;;;5065123;28;20406;-76
2021/03/17 08:26:56;;;;;;;6.13;1.60;;;8.30;90.10;;;;;;5074230;28;20016;-76
2021/03/17 08:29:22;;;;;;;5.10;1.30;;;8.30;91.60;;;;;;5073703;28;20069;-77
2021/03/17 08:31:52;;;;;;;4.55;1.00;;;8.40;88.90;;;;;;5079232;28;20024;-76
2021/03/17 08:34:18;;;;;;;4.13;0.90;;;8.50;91.80;;;;;;5071969;28;20017;-76
2021/03/17 08:36:54;;;;;;;7.10;1.27;;;8.60;85.00;;;;;;5054205;28;20024;-76
2021/03/17 08:39:29;;;;;;;4.70;0.90;;;8.90;85.50;;;;;;5054027;28;20020;-76
2021/03/17 08:41:58;;;;;;;3.78;1.10;;;9.20;81.70;;;;;;5054107;28;20020;-75
2021/03/17 08:44:26;;;;;;;7.80;1.33;;;9.50;82.30;;;;;;5053971;28;20515;-75
2021/03/17 08:46:54;;;;;;;7.57;1.23;;;9.60;89.10;;;;;;5054148;28;20432;-75
2021/03/17 08:49:35;;;;;;;5.65;1.42;;;9.60;89.50;;;;;;5054026;28;20027;-75
2021/03/17 08:52:08;;;;;;;6.97;1.10;;;9.50;82.50;;;;;;5072147;28;20021;-75
2021/03/17 08:54:34;;;;;;;4.30;1.20;;;9.20;82.80;;;;;;5053731;28;20019;-76
2021/03/17 08:57:04;;;;;;;6.15;1.35;;;9.00;88.70;;;;;;5053986;28;20029;-76
2021/03/17 08:59:51;;;;;;;4.55;1.17;;;8.80;84.10;;;;;;5053777;28;20025;-76
2021/03/17 09:02:26;;;;;;;5.80;1.10;;;8.70;81.00;;;;;;5066909;28;20136;-76
2021/03/17 09:04:58;;;;;;;7.35;1.35;;;8.60;86.20;;;;;;5053876;28;20439;-75
2021/03/17 09:07:32;;;;;;;7.72;1.55;;;8.40;89.90;;;;;;5053102;28;20040;-76
2021/03/17 09:10:07;;;;;;;7.63;1.50;;;8.30;88.50;;;;;;5054947;28;20021;-76
2021/03/17 09:12:33;;;;;;;12.00;1.50;;;8.20;91.60;;;;;;5056324;28;20691;-76
2021/03/17 09:15:20;;;;;;;3.28;1.05;;;8.00;91.70;;;;;;5085917;28;20043;-75
2021/03/17 09:17:54;;;;;;;4.78;1.30;;;7.90;93.10;;;;;;5074973;28;20020;-76
2021/03/17 09:20:48;;;;;;;7.95;2.28;;;7.90;92.70;;;;;;5085288;28;20453;-76
2021/03/17 09:23:22;;;;;;;5.18;1.65;;;7.90;93.70;;;;;;5053844;28;20544;-76
2021/03/17 09:25:52;;;;;;;4.82;1.17;;;8.00;94.60;;;;;;5060633;28;20024;-76
2021/03/17 09:28:25;;;;;;;6.40;2.00;;;8.00;94.20;;;;;;5071684;28;20020;-75
2021/03/17 09:31:06;;;;;;;3.28;1.30;;;7.90;91.70;;;;;;5053962;28;20025;-76
2021/03/17 09:33:38;;;;;;;7.13;1.35;;;8.10;92.50;;;;;;5071717;28;20016;-76
2021/03/17 09:36:08;;;;;;;2.95;1.15;;;8.50;94.60;;;;;;5053856;28;20127;-77
2021/03/17 09:38:36;;;;;;;5.00;1.02;;;8.80;93.60;;;;;;5071569;28;20047;-76
2021/03/17 09:41:12;;;;;;;5.45;1.15;;;9.10;93.80;;;;;;5071407;28;20044;-75
2021/03/17 09:43:48;;;;;;;3.03;0.85;;;9.50;90.80;;;;;;5071534;28;20018;-75
2021/03/17 09:46:18;;;;;;;11.00;1.33;;;9.90;86.20;;;;;;5071923;28;20021;-75
2021/03/17 09:48:45;;;;;;;4.85;1.25;;;10.30;90.90;;;;;;5071266;28;20051;-75
2021/03/17 09:51:16;;;;;;;6.90;2.13;;;10.40;89.30;;;;;;5071403;28;20164;-75
2021/03/17 09:53:43;;;;;;;7.57;1.17;;;10.50;89.40;;;;;;5053350;28;20453;-76
2021/03/17 09:56:09;;;;;;;3.35;0.80;;;10.50;85.40;;;;;;5075570;28;20024;-75
2021/03/17 09:58:35;;;;;;;8.48;2.58;;;10.70;87.80;;;;;;5057235;28;20013;-75
2021/03/17 10:01:12;;;;;;;6.13;1.13;;;10.70;90.80;;;;;;5075607;28;20013;-75
2021/03/17 10:03:44;;;;;;;3.55;0.95;;;10.70;86.30;;;;;;5074992;28;20094;-74
2021/03/17 10:06:10;;;;;;;6.32;1.08;;;10.90;88.20;;;;;;5057421;28;20111;-75
2021/03/17 10:08:35;;;;;;;6.50;1.50;;;10.80;91.50;;;;;;5056653;28;20152;-74
2021/03/17 10:11:01;;;;;;;5.18;1.05;;;10.90;90.60;;;;;;5074999;28;20043;-75
2021/03/17 10:13:33;;;;;;;4.45;1.10;;;10.70;83.40;;;;;;5057226;28;20027;-74
2021/03/17 10:15:59;;;;;;;6.78;1.20;;;10.40;85.80;;;;;;5075244;28;20460;-75
2021/03/17 10:18:25;;;;;;;7.68;1.10;;;10.30;91.20;;;;;;5074849;28;20081;-75
2021/03/17 10:20:50;;;;;;;9.93;2.00;;;9.90;91.10;;;;;;5056999;28;20520;-75
2021/03/17 10:23:16;;;;;;;8.27;1.40;;;9.70;85.60;;;;;;5056963;28;20027;-74
2021/03/17 10:25:42;;;;;;;5.55;1.35;;;9.80;90.10;;;;;;5056687;28;20467;-75
2021/03/17 10:28:11;;;;;;;6.32;1.10;;;9.70;90.20;;;;;;5065439;28;20511;-74
2021/03/17 10:30:39;;;;;;;7.03;1.30;;;9.60;84.10;;;;;;5056421;28;20028;-75
2021/03/17 10:33:17;;;;;;;4.72;1.10;;;9.70;89.10;;;;;;5056717;28;20357;-75
2021/03/17 10:35:44;;;;;;;4.05;1.38;;;9.80;91.80;;;;;;5075093;28;20453;-74
2021/03/17 10:38:10;;;;;;;6.43;1.05;;;9.90;87.10;;;;;;5091383;28;20027;-74
2021/03/17 10:40:37;;;;;;;4.35;1.58;;;10.10;92.10;;;;;;5092395;28;20030;-76
2021/03/17 10:43:14;;;;;;;7.50;1.42;;;9.90;91.00;;;;;;5075474;28;20115;-75
2021/03/17 10:45:53;;;;;;;4.65;1.13;;;10.00;88.00;;;;;;5075916;28;20452;-75
2021/03/17 10:48:22;;;;;;;6.43;1.83;;;10.10;91.20;;;;;;5094766;28;20024;-74
2021/03/17 10:50:49;;;;;;;6.75;1.50;;;10.20;84.10;;;;;;5076208;28;20051;-74
2021/03/17 10:53:26;;;;;;;2.95;1.15;;;10.40;75.90;;;;;;5076372;28;20016;-75
2021/03/17 10:56:01;;;;;;;6.50;1.27;;;10.60;90.40;;;;;;5076429;28;20020;-75
2021/03/17 10:58:32;;;;;;;3.45;1.25;;;11.00;90.40;;;;;;5076554;28;20517;-75
2021/03/17 11:01:00;;;;;;;7.70;2.22;;;11.10;86.80;;;;;;5076769;28;20510;-75
2021/03/17 11:03:42;;;;;;;7.38;1.80;;;11.10;88.30;;;;;;5075735;28;20407;-74
2021/03/17 11:06:17;;;;;;;5.32;1.30;;;11.20;87.00;;;;;;5076255;28;20345;-74
2021/03/17 11:08:46;;;;;;;6.63;1.65;;;11.30;79.40;;;;;;5093877;28;20399;-75
2021/03/17 11:11:13;;;;;;;10.43;1.48;;;11.00;74.50;;;;;;5076355;28;20383;-75
2021/03/17 11:13:46;;;;;;;5.43;1.45;;;10.90;78.90;;;;;;5075868;28;20054;-75
2021/03/17 11:16:20;;;;;;;5.75;1.40;;;10.60;75.10;;;;;;5075899;28;20016;-75
2021/03/17 11:18:53;;;;;;;7.53;1.77;;;10.30;74.40;;;;;;5075633;28;20081;-74
2021/03/17 11:21:27;;;;;;;8.60;1.88;;;10.10;79.30;;;;;;5093985;28;20020;-75
2021/03/17 11:23:54;;;;;;;7.72;1.80;;;9.80;71.80;;;;;;5093993;28;20023;-75
2021/03/17 11:26:35;;;;;;;10.25;1.73;;;9.70;85.20;;;;;;5075639;28;20406;-75
2021/03/17 11:29:10;;;;;;;3.05;0.85;;;9.70;76.10;;;;;;5073786;28;20025;-75
2021/03/17 11:31:36;;;;;;;4.70;1.38;;;9.80;88.70;;;;;;5087697;28;20032;-75
2021/03/17 11:34:03;;;;;;;8.27;1.92;;;10.10;79.80;;;;;;5093833;28;20017;-75
2021/03/17 11:36:29;;;;;;;6.28;1.80;;;10.50;76.40;;;;;;5075193;28;20396;-75
2021/03/17 11:39:00;;;;;;;6.35;1.27;;;11.20;81.10;;;;;;5093316;28;20030;-75
2021/03/17 11:41:27;;;;;;;6.40;1.10;;;11.80;82.70;;;;;;5074784;28;20027;-75
2021/03/17 11:43:53;;;;;;;6.05;1.63;;;12.20;81.10;;;;;;5093433;28;20024;-74
2021/03/17 11:46:19;;;;;;;5.05;1.90;;;12.10;80.80;;;;;;5075378;28;20016;-75
2021/03/17 11:48:45;;;;;;;6.45;2.30;;;11.80;81.20;;;;;;5093109;28;20024;-74
2021/03/17 11:51:10;;;;;;;7.88;1.63;;;11.30;77.70;;;;;;5093366;28;20481;-75
2021/03/17 11:53:37;;;;;;;4.60;1.42;;;10.90;72.60;;;;;;5093103;28;20065;-75
2021/03/17 11:56:04;;;;;;;5.85;1.27;;;10.50;81.80;;;;;;5075011;28;20081;-74
2021/03/17 11:58:29;;;;;;;9.88;1.95;;;10.30;80.40;;;;;;5074870;28;20043;-74
2021/03/17 12:00:55;;;;;;;5.57;1.10;;;10.00;81.30;;;;;;5092927;28;20028;-75
2021/03/17 12:03:21;;;;;;;11.73;2.17;;;9.80;83.70;;;;;;5093035;28;20016;-73
2021/03/17 12:05:47;;;;;;;5.88;1.08;;;9.70;82.80;;;;;;5092754;28;20223;-73
2021/03/17 12:08:13;;;;;;;4.85;1.10;;;9.60;82.60;;;;;;5092259;28;20043;-74
2021/03/17 12:10:39;;;;;;;6.88;1.38;;;9.50;81.70;;;;;;5074734;28;20032;-75
2021/03/17 12:13:06;;;;;;;6.15;1.40;;;9.40;77.30;;;;;;5092900;28;20407;-73
2021/03/17 12:15:34;;;;;;;5.13;1.13;;;9.40;86.60;;;;;;5092655;28;20452;-75
2021/03/17 12:18:00;;;;;;;3.25;1.02;;;9.50;89.20;;;;;;5074242;28;20031;-74
2021/03/17 12:20:32;;;;;;;5.95;1.55;;;9.40;82.30;;;;;;5092712;28;20027;-73
2021/03/17 12:22:59;;;;;;;6.35;1.63;;;9.30;79.60;;;;;;5092691;28;20035;-74
2021/03/17 12:25:24;;;;;;;4.40;0.90;;;9.30;84.50;;;;;;5093028;28;20095;-74
2021/03/17 12:27:51;;;;;;;6.00;1.42;;;9.40;79.80;;;;;;5082251;28;20552;-75
2021/03/17 12:30:20;;;;;;;3.30;1.02;;;9.30;74.80;;;;;;5054709;28;20376;-73
2021/03/17 12:32:46;;;;;;;3.80;0.90;;;9.30;76.10;;;;;;5054323;28;20017;-74
2021/03/17 12:35:15;;;;;;;4.32;0.98;;;9.30;82.70;;;;;;5072364;28;20020;-75
2021/03/17 12:37:43;;;;;;;3.72;1.00;;;9.30;84.70;;;;;;5054019;28;20068;-74
2021/03/17 12:40:11;;;;;;;2.45;0.88;;;9.30;79.50;;;;;;5072573;28;20025;-74
2021/03/17 12:42:36;;;;;;;3.53;1.00;;;9.20;75.50;;;;;;5071935;28;20030;-74
2021/03/17 12:45:05;;;;;;;3.08;0.88;;;9.20;79.50;;;;;;5054237;28;20111;-74
2021/03/17 12:47:31;;;;;;;3.97;1.05;;;9.20;76.80;;;;;;5053935;28;20025;-74
2021/03/17 12:49:57;;;;;;;3.17;0.93;;;9.20;77.20;;;;;;5054517;28;20047;-74
2021/03/17 12:52:23;;;;;;;5.40;0.90;;;9.20;78.20;;;;;;5072269;28;20017;-75
2021/03/17 12:54:49;;;;;;;5.80;1.00;;;9.20;79.30;;;;;;5087665;28;20025;-74
2021/03/17 12:57:15;;;;;;;2.15;0.73;;;9.10;85.10;;;;;;5072134;28;20021;-74
2021/03/17 12:59:41;;;;;;;3.72;0.90;;;9.00;90.20;;;;;;5087596;28;20510;-74
2021/03/17 13:02:07;;;;;;;5.57;1.27;;;8.90;85.00;;;;;;5072297;28;20345;-75
2021/03/17 13:04:33;;;;;;;1.83;0.80;;;8.80;82.00;;;;;;5072027;28;20031;-75
2021/03/17 13:06:59;;;;;;;1.95;0.80;;;8.70;89.90;;;;;;5037182;28;20032;-75
2021/03/17 13:09:24;;;;;;;2.40;0.80;;;8.70;86.90;;;;;;5071445;28;20047;-75